createdAt,value
2018-05-11T02:21:11.487Z,15.60
2018-05-11T02:23:40.002Z,15.60
2018-05-11T02:26:08.426Z,15.50
2018-05-11T02:28:36.046Z,15.50
2018-05-11T02:31:03.783Z,15.50
2018-05-11T02:33:31.431Z,15.40
2018-05-11T02:35:59.055Z,15.40
2018-05-11T02:38:26.701Z,15.40
2018-05-11T02:40:54.386Z,15.40
2018-05-11T02:43:22.030Z,15.40
2018-05-11T02:45:49.622Z,15.30
2018-05-11T02:48:17.261Z,15.30
2018-05-11T02:50:44.987Z,15.40
2018-05-11T02:53:12.604Z,15.40
2018-05-11T02:55:40.238Z,15.40
2018-05-11T02:58:07.849Z,15.30
2018-05-11T03:00:35.508Z,15.40
2018-05-11T03:03:03.253Z,15.40
2018-05-11T03:05:30.889Z,15.30
2018-05-11T03:07:58.542Z,15.30
2018-05-11T03:10:26.220Z,15.40
2018-05-11T03:12:54.613Z,15.50
2018-05-11T03:15:22.489Z,15.50
2018-05-11T03:17:50.096Z,15.40
2018-05-11T03:20:19.756Z,15.40
2018-05-11T03:22:47.336Z,15.40
2018-05-11T03:25:14.924Z,15.40
2018-05-11T03:27:44.483Z,15.50
2018-05-11T03:30:12.929Z,15.50
2018-05-11T03:32:40.514Z,15.40
2018-05-11T03:35:08.144Z,15.40
2018-05-11T03:37:36.540Z,15.40
2018-05-11T03:40:04.145Z,15.30
2018-05-11T03:42:31.780Z,15.30
2018-05-11T03:44:59.368Z,15.30
2018-05-11T03:47:26.985Z,15.30
2018-05-11T03:49:54.620Z,15.30
2018-05-11T03:52:23.012Z,15.30
2018-05-11T03:54:50.609Z,15.30
2018-05-11T03:57:18.245Z,15.30
2018-05-11T03:59:47.361Z,15.20
2018-05-11T04:02:26.928Z,15.30
2018-05-11T04:05:06.441Z,15.30
2018-05-11T04:07:45.921Z,15.40
2018-05-11T04:10:13.544Z,15.50
2018-05-11T04:12:41.173Z,15.50
2018-05-11T04:15:08.769Z,15.50
2018-05-11T04:17:37.201Z,15.50
2018-05-11T04:20:05.567Z,15.50
2018-05-11T04:22:33.935Z,15.50
2018-05-11T04:25:02.409Z,15.50
2018-05-11T04:27:30.101Z,15.40
2018-05-11T04:29:57.738Z,15.40
2018-05-11T04:32:25.365Z,15.30
2018-05-11T04:34:52.952Z,15.30
2018-05-11T04:37:20.626Z,15.30
2018-05-11T04:39:48.273Z,15.30
2018-05-11T04:42:15.908Z,15.40
2018-05-11T04:44:43.504Z,15.40
2018-05-11T04:47:11.130Z,15.40
2018-05-11T04:49:38.772Z,15.50
2018-05-11T04:52:06.380Z,15.50
2018-05-11T04:54:34.958Z,15.50
2018-05-11T04:57:02.569Z,15.50
2018-05-11T04:59:30.221Z,15.50
2018-05-11T05:01:57.821Z,15.50
2018-05-11T05:04:25.416Z,15.50
2018-05-11T05:06:53.830Z,15.60
2018-05-11T05:09:21.481Z,15.50
2018-05-11T05:11:49.085Z,15.50
2018-05-11T05:14:16.723Z,15.60
2018-05-11T05:16:44.321Z,15.60
2018-05-11T05:19:12.632Z,15.50
2018-05-11T05:21:40.282Z,15.60
2018-05-11T05:24:08.689Z,15.50
2018-05-11T05:26:36.361Z,15.50
2018-05-11T05:29:04.025Z,15.60
2018-05-11T05:31:31.665Z,15.60
2018-05-11T05:34:00.087Z,15.60
2018-05-11T05:36:27.684Z,15.60
2018-05-11T05:38:56.101Z,15.50
2018-05-11T05:41:23.706Z,15.50
2018-05-11T05:43:51.346Z,15.60
2018-05-11T05:46:19.030Z,15.60
2018-05-11T05:48:46.674Z,15.60
2018-05-11T05:51:14.277Z,15.50
2018-05-11T05:53:42.693Z,15.60
2018-05-11T05:56:10.349Z,15.50
2018-05-11T05:58:37.995Z,15.60
2018-05-11T06:01:05.637Z,15.60
2018-05-11T06:03:34.072Z,15.60
2018-05-11T06:06:02.482Z,15.60
2018-05-11T06:08:30.093Z,15.60
2018-05-11T06:10:57.857Z,15.70
2018-05-11T06:13:25.405Z,15.70
2018-05-11T06:15:53.046Z,15.70
2018-05-11T06:18:22.514Z,15.90
2018-05-11T06:20:50.153Z,15.80
2018-05-11T06:23:17.748Z,15.90
2018-05-11T06:25:45.385Z,15.90
2018-05-11T06:28:12.986Z,16.00
2018-05-11T06:30:41.382Z,16.00
2018-05-11T06:33:09.021Z,16.00
2018-05-11T06:35:37.429Z,15.90
2018-05-11T06:38:05.065Z,15.90
2018-05-11T06:40:32.670Z,15.90
2018-05-11T06:43:00.325Z,15.90
2018-05-11T06:45:28.415Z,15.90
2018-05-11T06:47:56.092Z,16.00
2018-05-11T06:50:23.764Z,16.00
2018-05-11T06:52:51.508Z,16.00
2018-05-11T06:55:19.290Z,16.00
2018-05-11T06:57:46.910Z,16.00
2018-05-11T07:00:14.617Z,16.20
2018-05-11T07:02:42.261Z,16.20
2018-05-11T07:05:09.861Z,16.30
2018-05-11T07:07:38.315Z,16.50
2018-05-11T07:10:05.885Z,16.40
2018-05-11T07:12:33.526Z,16.50
2018-05-11T07:15:01.130Z,16.50
2018-05-11T07:17:29.536Z,16.70
2018-05-11T07:19:57.149Z,16.70
2018-05-11T07:22:24.798Z,16.80
2018-05-11T07:24:52.410Z,16.90
2018-05-11T07:27:19.996Z,17.00
2018-05-11T07:29:47.633Z,17.10
2018-05-11T07:32:15.257Z,17.10
2018-05-11T07:34:43.670Z,17.30
2018-05-11T07:37:11.270Z,17.30
2018-05-11T07:39:38.930Z,17.40
2018-05-11T07:42:06.590Z,17.40
2018-05-11T07:44:34.198Z,17.50
2018-05-11T07:47:01.875Z,17.60
2018-05-11T07:49:29.472Z,17.60
2018-05-11T07:51:57.076Z,17.70
2018-05-11T07:54:25.497Z,17.70
2018-05-11T07:56:53.090Z,17.70
2018-05-11T07:59:20.729Z,17.70
2018-05-11T08:01:48.380Z,17.80
2018-05-11T08:04:15.983Z,17.90
2018-05-11T08:06:43.622Z,18.00
2018-05-11T08:09:11.237Z,18.10
2018-05-11T08:11:38.885Z,18.20
2018-05-11T08:14:07.331Z,18.40
2018-05-11T08:16:35.007Z,18.40
2018-05-11T08:19:02.622Z,18.50
2018-05-11T08:21:30.268Z,18.50
2018-05-11T08:23:57.866Z,18.60
2018-05-11T08:26:25.515Z,18.70
2018-05-11T08:28:53.359Z,18.70
2018-05-11T08:31:20.966Z,18.70
2018-05-11T08:33:48.631Z,18.80
2018-05-11T08:36:16.287Z,18.80
2018-05-11T08:38:43.898Z,18.90
2018-05-11T08:41:11.566Z,19.00
2018-05-11T08:43:39.191Z,19.10
2018-05-11T08:46:08.462Z,19.20
2018-05-11T08:48:36.378Z,19.20
2018-05-11T08:51:04.047Z,19.30
2018-05-11T08:53:31.691Z,19.40
2018-05-11T08:56:00.130Z,19.60
2018-05-11T08:58:28.042Z,19.50
2018-05-11T09:00:55.685Z,19.70
2018-05-11T09:03:23.345Z,19.70
2018-05-11T09:05:51.769Z,19.90
2018-05-11T09:08:19.490Z,19.90
2018-05-11T09:10:48.247Z,20.00
2018-05-11T09:13:15.910Z,20.20
2018-05-11T09:15:43.689Z,20.20
2018-05-11T09:18:12.114Z,20.30
2018-05-11T09:20:39.737Z,20.40
2018-05-11T09:23:07.385Z,20.50
2018-05-11T09:25:35.402Z,20.60
2018-05-11T09:28:04.544Z,20.70
2018-05-11T09:30:32.138Z,20.70
2018-05-11T09:33:01.227Z,20.90
2018-05-11T09:35:28.837Z,20.90
2018-05-11T09:37:56.604Z,20.90
2018-05-11T09:40:24.221Z,21.00
2018-05-11T09:42:52.766Z,21.10
2018-05-11T09:45:20.390Z,21.10
2018-05-11T09:47:49.146Z,21.20
2018-05-11T09:50:17.557Z,21.30
2018-05-11T09:52:45.213Z,21.20
2018-05-11T09:55:14.081Z,21.30
2018-05-11T09:57:41.788Z,21.40
2018-05-11T10:00:09.625Z,21.50
2018-05-11T10:02:37.287Z,21.50
2018-05-11T10:05:05.700Z,21.60
2018-05-11T10:07:33.346Z,21.60
2018-05-11T10:10:00.941Z,21.70
2018-05-11T10:12:28.690Z,21.80
2018-05-11T10:14:56.289Z,21.90
2018-05-11T10:17:23.952Z,22.00
2018-05-11T10:19:51.601Z,22.10
2018-05-11T10:22:19.214Z,22.10
2018-05-11T10:24:46.945Z,22.10
2018-05-11T10:27:15.305Z,22.20
2018-05-11T10:29:43.228Z,22.20
2018-05-11T10:32:10.852Z,22.20
2018-05-11T10:36:02.492Z,22.40
2018-05-11T10:38:30.124Z,22.50
2018-05-11T10:40:57.700Z,22.70
2018-05-11T10:43:25.296Z,22.90
2018-05-11T10:45:52.927Z,23.10
2018-05-11T10:48:20.513Z,23.20
2018-05-11T10:50:48.149Z,23.30
2018-05-11T10:53:16.427Z,23.30
2018-05-11T10:55:44.040Z,23.30
2018-05-11T10:58:12.564Z,23.30
2018-05-11T11:00:41.843Z,23.30
2018-05-11T11:03:09.424Z,23.30
2018-05-11T11:05:37.048Z,23.40
2018-05-11T11:08:07.372Z,23.50
2018-05-11T11:10:36.224Z,23.50
2018-05-11T11:13:04.615Z,23.60
2018-05-11T11:15:33.920Z,23.60
2018-05-11T11:18:01.577Z,23.60
2018-05-11T11:20:30.190Z,23.60
2018-05-11T11:22:58.804Z,23.60
2018-05-11T11:25:26.384Z,23.60
2018-05-11T11:27:54.002Z,23.70
2018-05-11T11:30:21.595Z,23.70
2018-05-11T11:32:49.179Z,23.70
2018-05-11T11:35:16.815Z,23.80
2018-05-11T11:37:44.399Z,23.90
2018-05-11T11:40:12.028Z,23.90
2018-05-11T11:42:40.308Z,23.90
2018-05-11T11:45:07.951Z,24.00
2018-05-11T11:47:35.583Z,24.00
2018-05-11T11:50:03.185Z,24.10
2018-05-11T11:52:35.474Z,24.10
2018-05-11T11:55:09.940Z,24.10
2018-05-11T11:57:39.820Z,24.00
2018-05-11T12:00:11.152Z,24.00
2018-05-11T12:02:40.491Z,23.90
2018-05-11T12:05:10.443Z,23.80
2018-05-11T12:07:38.027Z,23.80
2018-05-11T12:10:05.646Z,23.70
2018-05-11T12:12:37.601Z,23.60
2018-05-11T12:15:06.109Z,23.70
2018-05-11T12:17:34.515Z,23.80
2018-05-11T12:20:02.126Z,23.80
2018-05-11T12:22:30.940Z,23.90
2018-05-11T12:24:59.327Z,23.90
2018-05-11T12:27:27.713Z,24.00
2018-05-11T12:29:55.332Z,24.00
2018-05-11T12:32:22.956Z,23.90
2018-05-11T12:34:50.667Z,24.00
2018-05-11T12:37:19.060Z,24.20
2018-05-11T12:39:46.637Z,24.20
2018-05-11T12:42:15.072Z,24.40
2018-05-11T12:44:42.692Z,24.70
2018-05-11T12:47:10.272Z,24.90
2018-05-11T12:49:37.902Z,25.00
2018-05-11T12:52:05.505Z,25.10
2018-05-11T12:54:33.128Z,25.10
2018-05-11T12:57:03.120Z,25.20
2018-05-11T12:59:30.751Z,25.20
2018-05-11T13:01:58.378Z,25.30
2018-05-11T13:04:25.960Z,25.40
2018-05-11T13:06:54.352Z,25.30
2018-05-11T13:09:22.696Z,25.30
2018-05-11T13:11:50.315Z,25.20
2018-05-11T13:14:17.895Z,25.10
2018-05-11T13:16:45.540Z,25.00
2018-05-11T13:19:13.143Z,24.90
2018-05-11T13:21:40.724Z,24.80
2018-05-11T13:24:08.361Z,24.70
2018-05-11T13:26:36.760Z,24.60
2018-05-11T13:29:04.378Z,24.50
2018-05-11T13:31:32.004Z,24.40
2018-05-11T13:33:59.624Z,24.30
2018-05-11T13:36:28.651Z,24.60
2018-05-11T13:38:57.000Z,24.70
2018-05-11T13:41:25.350Z,24.90
2018-05-11T13:43:52.973Z,24.80
2018-05-11T13:46:21.441Z,25.10
2018-05-11T13:48:49.707Z,25.30
2018-05-11T13:51:17.321Z,25.60
2018-05-11T13:53:45.707Z,25.60
2018-05-11T13:56:13.422Z,25.60
2018-05-11T13:58:40.941Z,25.70
2018-05-11T14:01:09.333Z,26.00
2018-05-11T14:03:37.654Z,26.00
2018-05-11T14:06:05.268Z,26.10
2018-05-11T14:08:32.853Z,26.10
2018-05-11T14:11:00.486Z,25.90
2018-05-11T14:13:28.072Z,25.70
2018-05-11T14:15:55.709Z,25.60
2018-05-11T14:18:23.291Z,25.50
2018-05-11T14:20:50.888Z,25.40
2018-05-11T14:23:18.512Z,25.30
2018-05-11T14:25:46.099Z,25.20
2018-05-11T14:28:13.734Z,25.10
2018-05-11T14:30:41.326Z,25.10
2018-05-11T14:33:08.971Z,25.10
2018-05-11T14:35:37.576Z,25.30
2018-05-11T14:38:05.952Z,25.60
2018-05-11T14:40:34.315Z,25.80
2018-05-11T14:43:02.323Z,25.80
2018-05-11T14:45:29.956Z,25.90
2018-05-11T14:47:59.181Z,26.20
2018-05-11T14:50:26.859Z,26.20
2018-05-11T14:52:55.616Z,26.20
2018-05-11T14:55:25.956Z,26.30
2018-05-11T14:57:54.408Z,26.60
2018-05-11T15:00:22.796Z,26.70
2018-05-11T15:02:50.390Z,26.70
2018-05-11T15:05:25.203Z,26.80
2018-05-11T15:07:53.291Z,26.80
2018-05-11T15:10:20.875Z,26.50
2018-05-11T15:12:48.607Z,26.60
2018-05-11T15:15:16.248Z,26.70
2018-05-11T15:17:43.878Z,26.70
2018-05-11T15:20:12.267Z,26.90
2018-05-11T15:22:39.899Z,26.80
2018-05-11T15:25:08.244Z,26.90
2018-05-11T15:27:37.978Z,26.90
2018-05-11T15:30:05.560Z,26.90
2018-05-11T15:32:33.184Z,26.90
2018-05-11T15:35:00.772Z,26.90
2018-05-11T15:37:29.164Z,27.00
2018-05-11T15:39:57.348Z,27.00
2018-05-11T15:42:24.944Z,27.10
2018-05-11T15:44:52.563Z,27.20
2018-05-11T15:47:20.191Z,27.30
2018-05-11T15:49:48.547Z,27.40
2018-05-11T15:52:16.175Z,27.40
2018-05-11T15:54:43.771Z,27.40
2018-05-11T15:57:11.392Z,27.30
2018-05-11T15:59:39.037Z,27.10
2018-05-11T16:02:06.624Z,26.80
2018-05-11T16:04:34.256Z,26.50
2018-05-11T16:07:01.889Z,26.40
2018-05-11T16:09:30.236Z,26.30
2018-05-11T16:11:57.852Z,26.30
2018-05-11T16:14:25.443Z,26.40
2018-05-11T16:16:53.138Z,26.20
2018-05-11T16:19:20.773Z,26.10
2018-05-11T16:21:48.400Z,26.00
2018-05-11T16:24:16.024Z,26.10
2018-05-11T16:26:43.676Z,26.10
2018-05-11T16:29:12.080Z,25.70
2018-05-11T16:31:39.690Z,25.60
2018-05-11T16:34:07.359Z,25.50
2018-05-11T16:36:35.924Z,25.40
2018-05-11T16:39:03.652Z,25.20
2018-05-11T16:41:31.273Z,25.10
2018-05-11T16:43:59.620Z,24.70
2018-05-11T16:46:27.252Z,24.70
2018-05-11T16:48:54.831Z,24.50
2018-05-11T16:51:22.476Z,24.40
2018-05-11T16:53:50.079Z,24.30
2018-05-11T16:56:17.727Z,24.20
2018-05-11T16:58:45.351Z,24.10
2018-05-11T17:01:12.977Z,24.10
2018-05-11T17:03:40.561Z,24.00
2018-05-11T17:06:08.188Z,23.90
2018-05-11T17:08:35.795Z,23.80
2018-05-11T17:11:03.372Z,23.80
2018-05-11T17:13:30.992Z,23.60
2018-05-11T17:15:58.571Z,23.50
2018-05-11T17:18:26.147Z,23.40
2018-05-11T17:20:53.828Z,23.30
2018-05-11T17:23:22.176Z,23.20
2018-05-11T17:25:49.795Z,23.20
2018-05-11T17:28:17.424Z,23.10
2018-05-11T17:30:45.768Z,23.00
2018-05-11T17:33:13.402Z,23.00
2018-05-11T17:35:41.061Z,22.90
2018-05-11T17:38:08.710Z,22.90
2018-05-11T17:40:36.289Z,22.80
2018-05-11T17:43:03.876Z,22.80
2018-05-11T17:45:31.514Z,22.70
2018-05-11T17:47:59.186Z,22.70
2018-05-11T17:50:26.780Z,22.60
2018-05-11T17:52:55.124Z,22.50
2018-05-11T17:55:22.755Z,22.50
2018-05-11T17:57:50.384Z,22.50
2018-05-11T18:00:17.970Z,22.40
2018-05-11T18:02:45.583Z,22.40
2018-05-11T18:05:13.967Z,22.20
2018-05-11T18:07:42.313Z,22.10
2018-05-11T18:10:10.004Z,22.10
2018-05-11T18:12:37.592Z,22.00
2018-05-11T18:15:05.255Z,21.80
2018-05-11T18:17:32.880Z,21.70
2018-05-11T18:20:01.300Z,21.30
2018-05-11T18:22:28.916Z,21.30
2018-05-11T18:24:57.299Z,21.10
2018-05-11T18:27:24.879Z,21.00
2018-05-11T18:29:52.546Z,20.90
2018-05-11T18:32:20.179Z,20.70
2018-05-11T18:34:47.807Z,20.60
2018-05-11T18:37:15.429Z,20.60
2018-05-11T18:39:43.037Z,20.40
2018-05-11T18:42:11.433Z,20.30
2018-05-11T18:44:39.052Z,20.30
2018-05-11T18:47:06.760Z,20.30
2018-05-11T18:49:34.319Z,20.20
2018-05-11T18:52:01.944Z,20.10
2018-05-11T18:54:29.922Z,20.00
2018-05-11T18:56:58.006Z,19.80
2018-05-11T18:59:25.652Z,19.80
2018-05-11T19:01:54.046Z,19.70
2018-05-11T19:04:21.633Z,19.70
2018-05-11T19:06:50.020Z,19.60
2018-05-11T19:09:17.648Z,19.60
2018-05-11T19:11:45.272Z,19.60
2018-05-11T19:14:12.904Z,19.40
2018-05-11T19:16:40.525Z,19.40
2018-05-11T19:19:08.152Z,19.40
2018-05-11T19:21:36.507Z,19.30
2018-05-11T19:24:04.129Z,19.20
2018-05-11T19:26:31.718Z,19.00
2018-05-11T19:28:59.340Z,18.90
2018-05-11T19:31:27.687Z,18.70
2018-05-11T19:33:56.338Z,18.80
2018-05-11T19:36:23.995Z,18.70
2018-05-11T19:38:51.647Z,18.80
2018-05-11T19:41:19.299Z,18.70
2018-05-11T19:43:46.893Z,18.70
2018-05-11T19:46:14.482Z,18.70
2018-05-11T19:48:42.132Z,18.60
2018-05-11T19:51:10.552Z,18.60
2018-05-11T19:53:38.149Z,18.60
2018-05-11T19:56:06.568Z,18.50
2018-05-11T19:58:34.249Z,18.60
2018-05-11T20:01:01.845Z,18.60
2018-05-11T20:03:29.493Z,18.50
2018-05-11T20:05:57.084Z,18.40
2018-05-11T20:08:24.721Z,18.30
2018-05-11T20:10:52.409Z,18.20
2018-05-11T20:13:20.075Z,18.10
2018-05-11T20:15:47.676Z,18.00
2018-05-11T20:18:15.760Z,18.10
2018-05-11T20:20:43.349Z,18.00
2018-05-11T20:23:10.938Z,17.90
2018-05-11T20:25:38.896Z,17.80
2018-05-11T20:28:06.518Z,17.70
2018-05-11T20:30:34.226Z,17.60
2018-05-11T20:33:01.877Z,17.50
2018-05-11T20:35:29.456Z,17.50
2018-05-11T20:37:57.085Z,17.50
2018-05-11T20:40:24.900Z,17.50
2018-05-11T20:42:59.425Z,17.50
2018-05-11T20:45:32.529Z,17.50
2018-05-11T20:48:00.940Z,17.40
2018-05-11T20:50:28.580Z,17.40
2018-05-11T20:52:56.953Z,17.40
2018-05-11T20:55:25.380Z,17.30
2018-05-11T20:57:53.207Z,17.30
2018-05-11T21:00:20.873Z,17.20
2018-05-11T21:02:48.459Z,17.20
2018-05-11T21:05:16.094Z,17.30
2018-05-11T21:07:43.688Z,17.20
2018-05-11T21:10:11.308Z,17.10
2018-05-11T21:12:38.935Z,17.00
2018-05-11T21:15:07.292Z,16.90
2018-05-11T21:17:34.936Z,16.90
2018-05-11T21:20:02.572Z,16.80
2018-05-11T21:22:30.176Z,16.80
2018-05-11T21:24:57.760Z,16.80
2018-05-11T21:27:26.222Z,16.80
2018-05-11T21:29:53.867Z,16.80
2018-05-11T21:32:21.524Z,16.70
2018-05-11T21:34:49.128Z,16.60
2018-05-11T21:37:16.756Z,16.60
2018-05-11T21:39:44.385Z,16.60
2018-05-11T21:42:12.248Z,16.60
2018-05-11T21:44:39.883Z,16.60
2018-05-11T21:47:07.465Z,16.50
2018-05-11T21:49:40.066Z,16.50
2018-05-11T21:52:07.697Z,16.50
2018-05-11T21:54:37.132Z,16.40
2018-05-11T21:57:04.732Z,16.40
2018-05-11T21:59:32.369Z,16.30
2018-05-11T22:02:00.760Z,16.30
2018-05-11T22:04:28.388Z,16.30
2018-05-11T22:06:56.012Z,16.20
2018-05-11T22:09:23.668Z,16.20
2018-05-11T22:11:51.274Z,16.10
2018-05-11T22:14:19.641Z,16.00
2018-05-11T22:16:47.268Z,16.00
2018-05-11T22:19:15.101Z,16.10
2018-05-11T22:21:42.728Z,16.10
2018-05-11T22:24:10.379Z,16.10
2018-05-11T22:26:38.008Z,16.00
2018-05-11T22:29:05.591Z,16.00
2018-05-11T22:31:33.188Z,15.90
2018-05-11T22:34:00.807Z,15.90
2018-05-11T22:36:28.428Z,15.90
2018-05-11T22:38:56.056Z,15.80
2018-05-11T22:41:24.408Z,15.70
2018-05-11T22:43:52.025Z,15.70
2018-05-11T22:46:19.633Z,15.60
2018-05-11T22:48:47.216Z,15.50
2018-05-11T22:51:14.844Z,15.50
2018-05-11T22:53:42.468Z,15.40
2018-05-11T22:56:10.132Z,15.40
2018-05-11T22:58:37.761Z,15.40
2018-05-11T23:01:05.383Z,15.30
2018-05-11T23:03:33.018Z,15.30
2018-05-11T23:06:00.620Z,15.30
2018-05-11T23:08:29.008Z,15.30
2018-05-11T23:10:57.347Z,15.20
2018-05-11T23:13:24.964Z,15.20
2018-05-11T23:15:52.589Z,15.20
2018-05-11T23:18:20.983Z,15.30
2018-05-11T23:20:48.556Z,15.20
2018-05-11T23:23:16.127Z,15.30
2018-05-11T23:25:43.735Z,15.10
2018-05-11T23:28:12.120Z,15.10
2018-05-11T23:30:40.510Z,15.10
2018-05-11T23:33:08.097Z,15.10
2018-05-11T23:35:35.719Z,15.00
2018-05-11T23:38:04.068Z,14.90
2018-05-11T23:40:31.680Z,14.90
2018-05-11T23:42:59.303Z,14.80
2018-05-11T23:45:27.695Z,14.90
2018-05-11T23:47:56.037Z,14.90
2018-05-11T23:50:23.654Z,14.90
2018-05-11T23:52:51.275Z,15.00
2018-05-11T23:55:19.673Z,14.90
2018-05-11T23:57:47.251Z,14.90
